Time;durP1;ratioP1;P1;durP2;ratioP2;P2;SDS_P1;SDS_P2;PMS_P1;PMS_P2;Temp;Humidity;BMP_temperature;BMP_pressure;BME280_temperature;BME280_humidity;BME280_pressure;Samples;Min_cycle;Max_cycle;Signal;HPM_P1;HPM_P2
2021/04/14 00:00:27;;;;;;;14.78;9.20;;;;;;;8.26;100.00;101038.10;1765503;81;21069;-57
2021/04/14 00:02:55;;;;;;;16.12;9.03;;;;;;;8.24;100.00;101037.73;1765347;81;21215;-57
2021/04/14 00:05:25;;;;;;;18.48;8.85;;;;;;;8.22;100.00;101032.88;1765456;81;21135;-56
2021/04/14 00:07:54;;;;;;;19.87;9.43;;;;;;;8.21;100.00;101030.64;1765528;81;22353;-56
2021/04/14 00:10:28;;;;;;;16.12;8.90;;;;;;;8.20;100.00;101024.02;1765501;81;21088;-56
2021/04/14 00:12:57;;;;;;;18.70;9.20;;;;;;;8.16;100.00;101023.19;1765375;80;21140;-56
2021/04/14 00:15:30;;;;;;;18.32;8.80;;;;;;;8.12;100.00;101024.17;1765557;81;21068;-57
2021/04/14 00:17:59;;;;;;;13.40;8.05;;;;;;;8.09;100.00;101017.09;1771201;80;21131;-56
2021/04/14 00:20:28;;;;;;;13.68;8.65;;;;;;;8.07;100.00;101022.92;1790276;79;21551;-57
2021/04/14 00:22:56;;;;;;;19.98;9.08;;;;;;;8.05;100.00;101014.50;1722787;83;21453;-57
2021/04/14 00:25:28;;;;;;;18.20;9.75;;;;;;;8.05;100.00;101019.84;1792719;79;21071;-56
2021/04/14 00:27:56;;;;;;;16.75;9.63;;;;;;;8.04;100.00;101012.30;1798967;79;21578;-56
2021/04/14 00:30:24;;;;;;;20.65;9.45;;;;;;;8.01;100.00;101010.56;1761086;81;21052;-56
2021/04/14 00:32:51;;;;;;;13.13;8.80;;;;;;;7.99;100.00;101008.38;1798947;79;21368;-58
2021/04/14 00:35:21;;;;;;;15.60;8.78;;;;;;;7.97;100.00;101000.00;1761178;81;21119;-56
2021/04/14 00:37:50;;;;;;;14.93;9.15;;;;;;;7.94;100.00;100998.70;1730994;82;21591;-56
2021/04/14 00:40:28;;;;;;;18.55;9.35;;;;;;;7.91;100.00;100993.42;1799119;79;21107;-56
2021/04/14 00:42:57;;;;;;;18.10;9.63;;;;;;;7.89;100.00;101000.15;1731040;82;21162;-55
2021/04/14 00:45:26;;;;;;;14.50;8.65;;;;;;;7.87;100.00;101000.64;1761264;81;21194;-56
2021/04/14 00:47:55;;;;;;;14.80;9.28;;;;;;;7.84;100.00;101002.00;1731003;82;21092;-55
2021/04/14 00:50:25;;;;;;;14.28;8.48;;;;;;;7.83;100.00;101000.25;1731100;82;21108;-56
2021/04/14 00:52:53;;;;;;;18.20;8.95;;;;;;;7.78;100.00;100987.45;1799043;79;21056;-55
2021/04/14 00:55:24;;;;;;;16.95;8.05;;;;;;;7.76;100.00;100990.17;1731129;82;21055;-56
2021/04/14 00:57:52;;;;;;;17.82;9.03;;;;;;;7.72;100.00;100983.10;1738447;82;21215;-56
2021/04/14 01:00:41;;;;;;;19.02;8.78;;;;;;;7.71;100.00;100979.57;1770440;81;21176;-55
2021/04/14 01:03:25;;;;;;;14.95;8.95;;;;;;;7.69;100.00;100978.73;1751564;82;21138;-56
2021/04/14 01:05:54;;;;;;;17.77;8.78;;;;;;;7.67;100.00;100973.88;1751616;82;21051;-55
2021/04/14 01:08:24;;;;;;;17.27;8.83;;;;;;;7.65;100.00;100974.36;1751683;82;21495;-56
2021/04/14 01:10:51;;;;;;;17.35;8.98;;;;;;;7.61;100.00;100968.63;1751635;81;21359;-55
2021/04/14 01:13:20;;;;;;;15.90;8.80;;;;;;;7.60;100.00;100966.44;1751597;81;21118;-55
2021/04/14 01:15:50;;;;;;;16.97;8.05;;;;;;;7.61;100.00;100957.95;1751536;82;21000;-56
2021/04/14 01:18:26;;;;;;;17.45;9.08;;;;;;;7.59;100.00;100958.01;1738497;82;21138;-56
2021/04/14 01:20:54;;;;;;;14.33;8.65;;;;;;;7.57;100.00;100957.59;1716332;83;21086;-56
2021/04/14 01:23:26;;;;;;;13.20;8.18;;;;;;;7.55;100.00;100954.08;1737152;82;22434;-56
2021/04/14 01:25:55;;;;;;;18.50;8.30;;;;;;;7.53;100.00;100947.91;1733923;82;21013;-55
2021/04/14 01:28:28;;;;;;;15.65;8.48;;;;;;;7.51;100.00;100948.38;1708603;84;21151;-56
2021/04/14 01:30:57;;;;;;;;;;;;;;;7.48;100.00;100947.11;1711072;84;21202;-56
2021/04/14 01:33:28;;;;;;;17.65;8.50;;;;;;;7.48;100.00;100944.45;1708699;84;20223;-56
2021/04/14 01:35:59;;;;;;;17.85;9.15;;;;;;;7.48;100.00;100937.30;1708602;84;21024;-56
2021/04/14 01:38:27;;;;;;;14.85;7.45;;;;;;;7.48;100.00;100933.77;1729084;83;21519;-56
2021/04/14 01:40:57;;;;;;;16.27;8.43;;;;;;;7.48;100.00;100936.44;1708732;84;21171;-56
2021/04/14 01:43:24;;;;;;;13.72;7.62;;;;;;;7.44;100.00;100928.50;1728912;83;21562;-56
2021/04/14 01:45:53;;;;;;;15.20;8.15;;;;;;;7.42;100.00;100919.66;1708721;84;21158;-56
2021/04/14 01:48:21;;;;;;;14.58;8.00;;;;;;;7.40;100.00;100932.11;1765597;81;21708;-55
2021/04/14 01:50:49;;;;;;;14.87;9.18;;;;;;;7.40;100.00;100928.11;1765572;81;21118;-56
2021/04/14 01:53:18;;;;;;;20.77;8.37;;;;;;;7.41;100.00;100922.33;1765611;81;21134;-57
2021/04/14 01:55:49;;;;;;;13.20;8.15;;;;;;;7.41;100.00;100928.56;1765559;80;21496;-56
2021/04/14 01:58:18;;;;;;;14.83;8.23;;;;;;;7.44;100.00;100928.50;1765564;81;21130;-56
2021/04/14 02:00:53;;;;;;;13.48;7.97;;;;;;;7.44;100.00;100923.17;1765588;80;21187;-56
2021/04/14 02:03:22;;;;;;;13.55;7.58;;;;;;;7.47;100.00;100922.68;1765517;81;21581;-56
2021/04/14 02:05:51;;;;;;;19.73;8.35;;;;;;;7.45;100.00;100923.59;1765651;81;21550;-55
2021/04/14 02:08:19;;;;;;;13.38;7.37;;;;;;;7.42;100.00;100916.98;1765535;81;21123;-56
2021/04/14 02:10:47;;;;;;;10.70;7.92;;;;;;;7.41;100.00;100922.33;1765642;80;21134;-56
2021/04/14 02:13:26;;;;;;;13.78;7.67;;;;;;;7.38;100.00;100921.92;1765565;81;21711;-56
2021/04/14 02:15:53;;;;;;;11.63;8.00;;;;;;;7.37;100.00;100914.84;1765218;81;21544;-56
2021/04/14 02:18:21;;;;;;;15.10;8.20;;;;;;;7.35;100.00;100917.98;1777896;79;21361;-56
2021/04/14 02:20:48;;;;;;;14.93;8.38;;;;;;;7.33;100.00;100919.81;1797160;79;21349;-57
2021/04/14 02:23:27;;;;;;;17.55;9.63;;;;;;;7.33;100.00;100915.80;1797115;79;21179;-56
2021/04/14 02:26:00;;;;;;;18.50;8.95;;;;;;;7.33;100.00;100914.95;1800014;79;21364;-55
2021/04/14 02:28:27;;;;;;;15.72;8.30;;;;;;;7.36;100.00;100918.41;1814587;79;21144;-57
2021/04/14 02:30:57;;;;;;;14.10;7.67;;;;;;;7.37;100.00;100914.84;1814778;79;21050;-56
2021/04/14 02:33:24;;;;;;;15.48;8.55;;;;;;;7.41;100.00;100906.33;1814698;79;21464;-57
2021/04/14 02:35:53;;;;;;;14.35;8.83;;;;;;;7.41;100.00;100908.56;1814812;79;21126;-56
2021/04/14 02:38:21;;;;;;;14.87;8.50;;;;;;;7.45;100.00;100912.92;1814616;79;21194;-56
2021/04/14 02:40:49;;;;;;;15.03;8.60;;;;;;;7.48;100.00;100917.77;1814651;79;21098;-56
2021/04/14 02:43:16;;;;;;;19.30;10.40;;;;;;;7.49;100.00;100922.19;1814589;79;21134;-56
2021/04/14 02:45:44;;;;;;;17.35;8.45;;;;;;;7.51;100.00;100919.03;1814510;79;21121;-56
2021/04/14 02:48:12;;;;;;;16.82;7.67;;;;;;;7.53;100.00;100918.55;1814675;79;21031;-56
2021/04/14 02:50:39;;;;;;;13.18;7.72;;;;;;;7.58;100.00;100926.00;1814633;79;21326;-56
2021/04/14 02:53:07;;;;;;;13.90;7.90;;;;;;;7.63;100.00;100927.25;1814545;79;21145;-55
2021/04/14 02:55:36;;;;;;;13.90;8.60;;;;;;;7.69;100.00;100926.69;1814621;79;21038;-56
2021/04/14 02:58:03;;;;;;;12.73;8.28;;;;;;;7.72;100.00;100922.61;1806011;79;21073;-55
2021/04/14 03:00:32;;;;;;;15.88;7.85;;;;;;;7.80;100.00;100926.91;1805200;78;21067;-57
2021/04/14 03:03:00;;;;;;;12.82;7.50;;;;;;;7.83;100.00;100934.41;1734036;82;21204;-56
2021/04/14 03:05:32;;;;;;;13.08;7.90;;;;;;;7.89;100.00;100929.40;1764327;81;21143;-56
2021/04/14 03:07:59;;;;;;;13.98;8.45;;;;;;;7.92;100.00;100929.33;1734138;82;21131;-55
2021/04/14 03:10:28;;;;;;;15.65;9.10;;;;;;;7.97;100.00;100935.92;1734070;82;21167;-55
2021/04/14 03:12:56;;;;;;;15.40;8.10;;;;;;;7.99;100.00;100930.09;1734129;82;21051;-57
2021/04/14 03:15:29;;;;;;;12.60;7.90;;;;;;;8.01;100.00;100935.80;1734064;82;21179;-57
2021/04/14 03:17:57;;;;;;;14.13;7.03;;;;;;;8.06;100.00;100933.48;1736031;82;21211;-56
2021/04/14 03:20:25;;;;;;;12.58;7.83;;;;;;;8.07;100.00;100935.23;1761137;81;21127;-55
2021/04/14 03:22:54;;;;;;;16.20;7.92;;;;;;;8.10;100.00;100930.72;1777732;80;21091;-55
2021/04/14 03:25:24;;;;;;;13.60;7.60;;;;;;;8.13;100.00;100936.46;1774061;80;21466;-56
2021/04/14 03:27:52;;;;;;;15.15;8.03;;;;;;;8.13;100.00;100932.45;1770821;80;22179;-57
2021/04/14 03:30:21;;;;;;;13.58;8.33;;;;;;;8.12;100.00;100939.57;1770314;81;21124;-56
2021/04/14 03:32:51;;;;;;;11.25;7.45;;;;;;;8.13;100.00;100938.66;1770376;81;21108;-57
2021/04/14 03:35:21;;;;;;;15.72;7.90;;;;;;;8.13;100.00;100935.98;1770503;81;21171;-56
2021/04/14 03:37:49;;;;;;;11.97;7.65;;;;;;;8.15;100.00;100938.64;1770491;81;21183;-58
2021/04/14 03:40:17;;;;;;;12.40;6.95;;;;;;;8.18;100.00;100941.23;1770374;81;21713;-57
2021/04/14 03:42:45;;;;;;;13.85;6.70;;;;;;;8.20;100.00;100942.08;1770261;81;21149;-56
2021/04/14 03:45:18;;;;;;;11.63;7.00;;;;;;;8.21;100.00;100948.31;1770403;81;21128;-56
2021/04/14 03:47:45;;;;;;;12.10;7.47;;;;;;;8.21;100.00;100943.84;1770457;81;21085;-56
2021/04/14 03:50:16;;;;;;;14.45;7.95;;;;;;;8.25;100.00;100948.19;1770367;81;21073;-57
2021/04/14 03:52:44;;;;;;;16.15;8.00;;;;;;;8.27;100.00;100953.04;1770374;81;21100;-56
2021/04/14 03:58:39;;;;;;;15.35;8.33;;;;;;;8.30;100.00;100957.01;1675674;81;21207;-55
2021/04/14 04:01:09;;;;;;;14.87;7.95;;;;;;;8.30;100.00;100950.77;1689244;82;21061;-56
2021/04/14 04:03:36;;;;;;;12.60;8.03;;;;;;;8.28;100.00;100954.80;1773727;80;21168;-57
2021/04/14 04:06:04;;;;;;;14.58;9.40;;;;;;;8.29;100.00;100957.03;1773749;80;21677;-57
2021/04/14 04:08:32;;;;;;;17.32;8.88;;;;;;;8.29;100.00;100957.92;1773615;80;21102;-57
2021/04/14 04:11:00;;;;;;;12.60;8.23;;;;;;;8.33;100.00;100953.84;1773662;80;21106;-57
2021/04/14 04:13:30;;;;;;;9.48;7.37;;;;;;;8.35;100.00;100958.22;1773702;80;21119;-56
2021/04/14 04:15:58;;;;;;;13.00;7.72;;;;;;;8.38;100.00;100958.62;1773742;80;21169;-57
2021/04/14 04:18:27;;;;;;;16.00;8.68;;;;;;;8.40;100.00;100960.80;1787237;79;21409;-57
2021/04/14 04:20:56;;;;;;;14.98;8.10;;;;;;;8.41;100.00;100966.56;1805080;79;38193;-56
2021/04/14 04:23:24;;;;;;;14.28;8.18;;;;;;;8.45;100.00;100965.57;1805456;79;21075;-55
2021/04/14 04:25:53;;;;;;;13.95;7.37;;;;;;;8.49;100.00;100967.73;1805424;79;21055;-56
2021/04/14 04:28:21;;;;;;;12.82;7.22;;;;;;;8.52;100.00;100956.55;1813871;79;21130;-57
2021/04/14 04:30:50;;;;;;;11.83;7.12;;;;;;;8.54;100.00;100962.73;1814592;79;21682;-57
2021/04/14 04:33:19;;;;;;;15.03;7.53;;;;;;;8.59;100.00;100972.86;1814531;79;21102;-57
2021/04/14 04:35:47;;;;;;;13.65;8.30;;;;;;;8.64;100.00;100966.52;1814506;79;21550;-56
2021/04/14 04:38:14;;;;;;;13.25;7.58;;;;;;;8.66;100.00;100964.24;1814563;79;21023;-56
2021/04/14 04:40:42;;;;;;;13.22;7.92;;;;;;;8.69;100.00;100973.52;1814569;79;21035;-56
2021/04/14 04:43:10;;;;;;;11.88;7.00;;;;;;;8.73;100.00;100973.87;1814487;78;21696;-58
2021/04/14 04:45:38;;;;;;;13.00;6.97;;;;;;;8.78;100.00;100972.43;1814453;79;21122;-56
2021/04/14 04:48:07;;;;;;;13.05;6.92;;;;;;;8.83;100.00;100980.31;1814557;79;21067;-56
2021/04/14 04:50:36;;;;;;;10.48;7.03;;;;;;;8.86;100.00;100978.45;1814570;79;21062;-56
2021/04/14 04:53:11;;;;;;;12.37;7.65;;;;;;;8.89;100.00;100982.39;1814696;78;22286;-57
2021/04/14 04:55:44;;;;;;;12.28;7.12;;;;;;;8.94;100.00;100982.73;1814528;78;21181;-57
2021/04/14 04:58:11;;;;;;;11.60;7.28;;;;;;;8.92;100.00;100981.45;1814439;79;21102;-56
2021/04/14 05:00:39;;;;;;;10.32;7.50;;;;;;;8.91;100.00;100978.80;1814528;78;21146;-57
2021/04/14 05:03:07;;;;;;;12.25;8.00;;;;;;;8.92;100.00;100980.55;1814396;79;21174;-56
2021/04/14 05:05:38;;;;;;;13.15;7.20;;;;;;;8.94;100.00;100978.28;1814663;79;21027;-57
2021/04/14 05:08:06;;;;;;;12.65;7.22;;;;;;;8.99;100.00;100976.84;1814730;79;21370;-56
2021/04/14 05:10:35;;;;;;;13.95;7.85;;;;;;;9.03;100.00;100985.20;1814455;79;21149;-57
2021/04/14 05:13:03;;;;;;;16.00;8.13;;;;;;;9.02;100.00;100981.63;1814562;79;20992;-56
2021/04/14 05:15:33;;;;;;;14.90;6.78;;;;;;;9.04;100.00;100982.94;1814488;79;21142;-56
2021/04/14 05:18:01;;;;;;;11.35;7.47;;;;;;;9.06;100.00;100978.88;1806434;79;21094;-57
2021/04/14 05:20:29;;;;;;;13.13;7.12;;;;;;;9.06;100.00;100977.09;1782439;80;21183;-56
2021/04/14 05:22:58;;;;;;;16.82;7.40;;;;;;;9.11;100.00;100970.30;1782530;80;21166;-57
2021/04/14 05:25:30;;;;;;;14.38;7.45;;;;;;;9.19;100.00;100982.15;1782560;80;21059;-57
2021/04/14 05:28:03;;;;;;;14.18;7.72;;;;;;;9.24;100.00;100974.40;1777032;80;21182;-57
2021/04/14 05:30:27;;;;;;;13.13;7.20;;;;;;;9.27;100.00;100968.10;1773383;80;21149;-56
2021/04/14 05:32:55;;;;;;;11.43;7.05;;;;;;;9.33;100.00;100974.62;1773766;80;21535;-56
2021/04/14 05:35:23;;;;;;;11.80;6.85;;;;;;;9.40;100.00;100965.53;1773662;80;21071;-56
2021/04/14 05:37:50;;;;;;;10.70;7.10;;;;;;;9.49;100.00;100962.18;1773807;80;21253;-56
2021/04/14 05:40:18;;;;;;;11.22;8.00;;;;;;;9.56;100.00;100967.77;1773869;80;22381;-55
2021/04/14 05:42:46;;;;;;;14.00;7.72;;;;;;;9.61;100.00;100969.86;1773832;80;21130;-56
2021/04/14 05:45:22;;;;;;;14.05;6.83;;;;;;;9.64;100.00;100964.45;1773695;80;21685;-56
2021/04/14 05:47:49;;;;;;;11.68;6.33;;;;;;;9.67;100.00;100968.38;1773679;80;21123;-56
2021/04/14 05:50:21;;;;;;;11.70;6.72;;;;;;;9.71;99.34;100978.52;1773836;80;21130;-57
2021/04/14 05:52:48;;;;;;;12.18;6.20;;;;;;;9.70;99.15;100970.96;1773703;80;21158;-56
2021/04/14 05:55:17;;;;;;;11.75;7.05;;;;;;;9.73;98.68;100969.53;1773829;80;21071;-57
2021/04/14 05:57:44;;;;;;;13.25;6.92;;;;;;;9.71;98.40;100966.02;1793244;79;21365;-56
2021/04/14 06:00:13;;;;;;;12.50;6.97;;;;;;;9.70;97.89;100964.27;1730971;82;21071;-57
2021/04/14 06:02:42;;;;;;;11.43;6.22;;;;;;;9.66;97.79;100967.95;1731032;82;21147;-56
2021/04/14 06:05:12;;;;;;;14.47;7.28;;;;;;;9.66;97.90;100962.60;1730983;82;21206;-57
2021/04/14 06:07:39;;;;;;;12.95;6.55;;;;;;;9.69;97.83;100966.97;1730989;82;21159;-56
2021/04/14 06:10:08;;;;;;;12.95;6.53;;;;;;;9.73;97.84;100966.85;1728000;82;21716;-56
2021/04/14 06:12:37;;;;;;;12.58;6.40;;;;;;;9.78;97.52;100967.18;1773670;80;21186;-57
2021/04/14 06:15:09;;;;;;;9.38;6.90;;;;;;;9.78;97.13;100969.86;1773708;79;21535;-57
2021/04/14 06:17:37;;;;;;;10.20;6.25;;;;;;;9.78;96.84;100964.50;1775893;79;21146;-57
2021/04/14 06:20:08;;;;;;;9.18;6.22;;;;;;;9.81;96.77;100960.39;1798983;79;21055;-56
2021/04/14 06:22:36;;;;;;;16.27;6.60;;;;;;;9.82;96.21;100966.16;1761243;81;21422;-57
2021/04/14 06:25:06;;;;;;;10.48;6.37;;;;;;;9.83;96.16;100967.92;1798095;79;21159;-56
2021/04/14 06:27:40;;;;;;;11.28;6.28;;;;;;;9.85;96.01;100966.10;1797978;79;21193;-56
2021/04/14 06:30:07;;;;;;;13.85;6.33;;;;;;;9.87;96.04;100962.44;1760200;81;21119;-57
2021/04/14 06:32:36;;;;;;;11.95;6.37;;;;;;;9.92;95.55;100962.31;1798353;79;21159;-56
2021/04/14 06:35:05;;;;;;;12.68;6.05;;;;;;;9.92;95.25;100960.98;1760395;81;22728;-56
2021/04/14 06:37:34;;;;;;;9.60;6.22;;;;;;;9.92;95.16;100959.64;1798828;79;21075;-57
2021/04/14 06:43:01;;;;;;;9.10;6.92;;;;;;;9.87;94.70;100957.56;1799187;79;21130;-57
2021/04/14 06:45:36;;;;;;;10.70;6.17;;;;;;;9.83;94.72;100966.58;1803717;79;21027;-57
2021/04/14 06:48:34;;;;;;;9.80;6.20;;;;;;;9.81;94.67;100955.03;1805530;79;21386;-56
2021/04/14 06:51:27;;;;;;;8.15;5.45;;;;;;;9.78;94.52;100956.47;1802168;79;21358;-57
2021/04/14 06:54:04;;;;;;;8.20;5.92;;;;;;;9.74;94.61;100957.90;1773660;80;21099;-57
2021/04/14 06:56:32;;;;;;;8.80;5.33;;;;;;;9.70;94.67;100957.57;1725440;79;21055;-55
2021/04/14 06:59:04;;;;;;;11.30;6.00;;;;;;;9.66;94.73;100955.02;1730936;82;21079;-56
2021/04/14 07:01:56;;;;;;;10.23;6.03;;;;;;;9.63;94.97;100953.77;1730883;82;21368;-56
2021/04/14 07:04:50;;;;;;;11.05;6.42;;;;;;;9.65;95.19;100955.94;1730853;81;21088;-57
2021/04/14 07:07:25;;;;;;;11.38;6.20;;;;;;;9.64;95.33;100951.06;1730955;82;21155;-56
2021/04/14 07:09:57;;;;;;;9.55;5.65;;;;;;;9.66;95.44;100949.22;1731062;82;21320;-57
2021/04/14 07:12:27;;;;;;;14.25;5.92;;;;;;;9.67;95.43;100956.32;1730274;81;21526;-56
2021/04/14 07:14:57;;;;;;;9.60;5.97;;;;;;;9.70;95.39;100952.22;1744075;80;21495;-57
2021/04/14 07:18:04;;;;;;;14.93;6.75;;;;;;;9.74;95.38;100954.36;1773625;80;21102;-56
2021/04/14 07:20:59;;;;;;;12.80;5.78;;;;;;;9.78;95.33;100955.13;1773572;80;21062;-57
2021/04/14 07:23:49;;;;;;;13.78;6.22;;;;;;;9.87;95.14;100949.53;1889386;76;28496;-57
2021/04/14 07:26:31;;;;;;;17.52;6.80;;;;;;;9.83;95.05;100949.17;1853018;77;21018;-57
2021/04/14 07:29:11;;;;;;;11.80;6.03;;;;;;;9.83;94.97;100950.52;1826550;78;21149;-57
2021/04/14 07:31:56;;;;;;;10.00;6.08;;;;;;;9.81;94.78;100947.00;1826436;76;21003;-58
2021/04/14 07:34:51;;;;;;;11.45;5.85;;;;;;;9.77;94.87;100952.03;1840100;77;21496;-56
2021/04/14 07:37:32;;;;;;;9.70;5.78;;;;;;;9.74;94.84;100953.88;1851436;77;21164;-56
2021/04/14 07:40:13;;;;;;;11.93;6.20;;;;;;;9.67;94.93;100952.31;1854300;77;21517;-57
2021/04/14 07:42:53;;;;;;;11.22;6.25;;;;;;;9.62;94.99;100955.58;1859449;77;21489;-57
2021/04/14 07:45:31;;;;;;;10.10;5.75;;;;;;;9.55;95.30;100953.97;1859421;77;21019;-57
2021/04/14 07:48:17;;;;;;;12.05;5.80;;;;;;;9.52;95.43;100950.05;1859531;77;21142;-57
2021/04/14 07:50:54;;;;;;;;;;;;;;;9.48;95.59;100949.72;1863043;77;20945;-57
2021/04/14 07:53:30;;;;;;;8.18;5.60;;;;;;;9.46;95.59;100951.98;1860365;77;20229;-57
2021/04/14 07:56:18;;;;;;;8.53;5.37;;;;;;;9.40;95.71;100954.83;1858960;77;21421;-57
2021/04/14 07:58:44;;;;;;;12.10;5.42;;;;;;;9.37;95.78;100944.18;1824765;78;21067;-57
2021/04/14 08:01:22;;;;;;;13.18;5.28;;;;;;;9.32;96.05;100938.08;1804436;78;21049;-56
2021/04/14 08:03:52;;;;;;;12.90;5.80;;;;;;;9.32;96.22;100939.42;1824800;78;21016;-58
2021/04/14 08:06:28;;;;;;;12.70;5.83;;;;;;;9.32;96.50;100939.42;1824765;78;21011;-57
2021/04/14 08:08:56;;;;;;;12.10;5.62;;;;;;;9.33;96.58;100947.00;1824822;78;22277;-58
2021/04/14 08:11:31;;;;;;;9.75;5.40;;;;;;;9.30;96.58;100939.48;1824784;78;21499;-56
2021/04/14 08:14:27;;;;;;;10.00;4.85;;;;;;;9.28;96.65;100935.08;1824685;78;21027;-57
2021/04/14 08:16:55;;;;;;;9.00;5.25;;;;;;;9.27;96.67;100936.00;1824785;78;20908;-57
2021/04/14 08:19:29;;;;;;;10.88;5.45;;;;;;;9.26;96.77;100937.78;1853975;77;21056;-57
2021/04/14 08:22:03;;;;;;;12.97;5.50;;;;;;;9.25;96.75;100937.36;1827861;77;21350;-56
2021/04/14 08:25:01;;;;;;;13.20;4.70;;;;;;;9.25;96.79;100940.03;1858126;77;20976;-57
2021/04/14 08:27:38;;;;;;;7.50;4.75;;;;;;;9.25;96.87;100932.48;1858110;77;21139;-57
2021/04/14 08:30:21;;;;;;;8.45;5.08;;;;;;;9.28;96.85;100925.70;1829680;77;21100;-59
2021/04/14 08:32:57;;;;;;;8.20;4.85;;;;;;;9.29;96.96;100934.16;1858095;77;20922;-57
2021/04/14 08:35:39;;;;;;;9.60;5.00;;;;;;;9.27;96.95;100926.16;1857432;77;22234;-57
2021/04/14 08:38:12;;;;;;;9.33;4.95;;;;;;;9.24;97.02;100928.92;1857503;77;20989;-58
2021/04/14 08:40:49;;;;;;;10.48;5.50;;;;;;;9.23;97.17;100922.28;1857593;77;20926;-58
2021/04/14 08:43:40;;;;;;;11.20;5.22;;;;;;;9.23;97.37;100917.80;1857410;77;21160;-57
2021/04/14 08:46:26;;;;;;;9.93;5.35;;;;;;;9.26;97.27;100910.16;1850507;77;21142;-57
2021/04/14 08:49:03;;;;;;;9.13;4.30;;;;;;;9.28;97.19;100913.67;1851741;77;21369;-57
2021/04/14 08:51:42;;;;;;;5.95;4.15;;;;;;;9.35;96.63;100915.25;1779966;80;21097;-57
2021/04/14 08:54:15;;;;;;;10.90;4.00;;;;;;;9.39;96.07;100914.23;1796819;79;20987;-57
2021/04/14 08:56:43;;;;;;;6.75;4.25;;;;;;;9.45;95.47;100906.06;1781289;80;21577;-57
2021/04/14 08:59:12;;;;;;;7.03;4.50;;;;;;;9.50;95.14;100901.90;1798516;79;21479;-57
2021/04/14 09:01:40;;;;;;;9.90;4.85;;;;;;;9.53;94.81;100903.62;1781151;80;21601;-59
2021/04/14 09:04:10;;;;;;;8.03;4.53;;;;;;;9.52;94.55;100897.86;1782740;80;21030;-58
2021/04/14 09:06:39;;;;;;;7.97;4.20;;;;;;;9.53;94.42;100896.93;1798414;79;21005;-58
2021/04/14 09:09:10;;;;;;;7.30;4.22;;;;;;;9.52;94.36;100897.86;1781210;80;21564;-58
2021/04/14 09:11:39;;;;;;;7.67;4.35;;;;;;;9.56;94.52;100891.48;1792585;79;21122;-57
2021/04/14 09:14:25;;;;;;;12.88;5.33;;;;;;;9.62;94.54;100887.31;1758515;80;22029;-59
2021/04/14 09:16:56;;;;;;;10.70;4.50;;;;;;;9.72;94.60;100874.06;1769158;81;20947;-57
2021/04/14 09:19:37;;;;;;;8.55;4.25;;;;;;;9.84;94.20;100875.98;1794918;79;21068;-57
2021/04/14 09:22:29;;;;;;;11.73;4.95;;;;;;;9.93;93.84;100868.98;1817596;78;21288;-58
2021/04/14 09:25:10;;;;;;;8.60;4.83;;;;;;;10.03;93.27;100865.57;1815190;78;21019;-58
2021/04/14 09:27:44;;;;;;;8.63;4.53;;;;;;;10.15;92.76;100862.97;1768059;78;21370;-59
2021/04/14 09:30:34;;;;;;;8.03;4.80;;;;;;;10.25;92.29;100864.42;1795478;78;21136;-59
2021/04/14 09:33:11;;;;;;;10.08;4.62;;;;;;;10.35;91.84;100856.10;1801819;78;21488;-58
2021/04/14 09:35:45;;;;;;;8.03;5.28;;;;;;;10.48;90.82;100865.52;1788764;79;21134;-58
2021/04/14 09:38:31;;;;;;;9.08;4.78;;;;;;;10.56;90.14;100856.77;1796861;79;21167;-57
2021/04/14 09:41:25;;;;;;;10.38;5.10;;;;;;;10.66;89.54;100859.12;1798577;78;21723;-59
2021/04/14 09:43:55;;;;;;;8.50;4.62;;;;;;;10.78;89.07;100854.70;1815331;78;21110;-58
2021/04/14 09:46:42;;;;;;;9.28;4.75;;;;;;;10.94;88.03;100854.16;1786068;78;21174;-53
2021/04/14 09:49:15;;;;;;;17.98;5.05;;;;;;;11.03;87.29;100853.84;1782069;80;21012;-53
2021/04/14 09:51:59;;;;;;;11.33;5.33;;;;;;;11.08;86.40;100859.92;1783327;80;21059;-52
2021/04/14 09:54:33;;;;;;;9.25;4.17;;;;;;;11.05;86.13;100850.64;1783308;80;21320;-52
2021/04/14 09:57:03;;;;;;;7.60;4.80;;;;;;;11.08;85.97;100857.23;1794431;79;21157;-52
2021/04/14 09:59:36;;;;;;;12.58;5.80;;;;;;;11.09;85.70;100856.78;1793691;79;21082;-52
2021/04/14 10:02:10;;;;;;;7.72;4.10;;;;;;;11.06;85.36;100853.73;1789456;80;21071;-52
2021/04/14 10:04:38;;;;;;;6.58;4.17;;;;;;;10.98;85.24;100858.51;1810035;79;21134;-52
2021/04/14 10:07:31;;;;;;;8.70;4.33;;;;;;;10.91;85.48;100848.91;1785897;79;21624;-52
2021/04/14 10:10:10;;;;;;;9.78;4.47;;;;;;;10.88;85.55;100849.42;1788123;79;21098;-58
2021/04/14 10:12:41;;;;;;;7.15;4.53;;;;;;;10.91;85.71;100855.61;1780846;80;21585;-58
2021/04/14 10:15:13;;;;;;;7.65;4.15;;;;;;;10.91;85.55;100844.42;1799091;79;21024;-58
2021/04/14 10:17:44;;;;;;;9.48;5.10;;;;;;;10.92;85.83;100841.27;1756925;79;21074;-57
2021/04/14 10:20:26;;;;;;;9.55;4.53;;;;;;;10.97;85.86;100842.00;1793556;80;20907;-58
2021/04/14 10:22:52;;;;;;;6.53;4.85;;;;;;;11.01;85.81;100839.13;1793490;80;21496;-57
2021/04/14 10:25:31;;;;;;;8.05;5.03;;;;;;;11.04;85.76;100832.80;1793638;80;21072;-58
2021/04/14 10:28:07;;;;;;;8.58;5.50;;;;;;;11.07;85.68;100840.73;1793730;80;21445;-59
2021/04/14 10:30:37;;;;;;;6.62;4.85;;;;;;;11.05;85.55;100839.91;1790338;80;21497;-59
2021/04/14 10:33:09;;;;;;;7.10;4.92;;;;;;;11.04;85.63;100835.00;1793656;80;21473;-59
2021/04/14 10:35:36;;;;;;;9.80;5.50;;;;;;;11.02;85.42;100830.63;1793533;80;21211;-58
2021/04/14 10:38:05;;;;;;;12.93;6.12;;;;;;;10.94;85.41;100830.91;1793666;80;21069;-57
2021/04/14 10:40:44;;;;;;;9.68;5.65;;;;;;;10.82;85.50;100823.27;1793503;80;21069;-57
2021/04/14 10:43:20;;;;;;;10.13;5.80;;;;;;;10.69;85.59;100826.39;1793551;80;21065;-58
2021/04/14 10:46:08;;;;;;;11.88;6.00;;;;;;;10.58;86.02;100821.40;1793608;80;21417;-57
2021/04/14 10:48:46;;;;;;;9.43;5.33;;;;;;;10.45;86.44;100825.41;1793535;80;21155;-58
2021/04/14 10:51:22;;;;;;;10.48;6.05;;;;;;;10.37;87.15;100818.92;1793490;80;21073;-57
2021/04/14 10:53:55;;;;;;;10.58;5.40;;;;;;;10.28;87.70;100816.11;1793507;80;21556;-57
2021/04/14 10:56:28;;;;;;;7.95;5.10;;;;;;;10.22;88.03;100818.97;1786921;80;21166;-57
2021/04/14 10:58:56;;;;;;;9.15;5.55;;;;;;;10.15;88.33;100814.27;1761379;81;21385;-57
2021/04/14 11:01:43;;;;;;;9.83;4.97;;;;;;;10.10;88.61;100814.02;1761829;81;20951;-57
2021/04/14 11:04:37;;;;;;;11.38;5.83;;;;;;;10.06;88.80;100816.36;1761951;81;21019;-58
2021/04/14 11:07:19;;;;;;;9.88;5.62;;;;;;;9.97;89.04;100804.16;1761825;81;21197;-57
2021/04/14 11:09:48;;;;;;;10.65;5.45;;;;;;;9.89;89.30;100801.24;1761955;81;21150;-58
2021/04/14 11:12:23;;;;;;;8.45;5.70;;;;;;;9.86;89.57;100800.00;1761920;81;21047;-58
2021/04/14 11:14:57;;;;;;;;;;;;;;;9.83;89.84;100800.55;1764466;81;21110;-57
2021/04/14 11:17:31;;;;;;;10.93;5.42;;;;;;;9.80;90.19;100793.51;1762077;80;20467;-58
2021/04/14 11:20:06;;;;;;;8.60;5.05;;;;;;;9.75;90.30;100796.80;1762978;81;21121;-57
2021/04/14 11:22:46;;;;;;;9.35;5.10;;;;;;;9.72;90.49;100791.06;1821260;78;21479;-57
2021/04/14 11:25:35;;;;;;;10.72;5.05;;;;;;;9.70;90.42;100787.56;1811972;78;21746;-58
2021/04/14 11:28:12;;;;;;;9.95;5.70;;;;;;;9.68;90.54;100786.73;1811826;78;20941;-58
2021/04/14 11:30:55;;;;;;;12.70;5.85;;;;;;;9.66;90.75;100783.23;1811895;79;20968;-59
2021/04/14 11:33:43;;;;;;;14.30;5.85;;;;;;;9.63;90.86;100783.33;1811935;79;21060;-59
2021/04/14 11:36:33;;;;;;;12.35;5.50;;;;;;;9.62;91.07;100776.22;1812054;78;21546;-56
2021/04/14 11:39:13;;;;;;;12.05;5.83;;;;;;;9.59;91.44;100770.94;1812037;78;22547;-58
2021/04/14 11:41:44;;;;;;;13.40;5.50;;;;;;;9.55;91.58;100770.62;1777196;80;21067;-57
2021/04/14 11:44:27;;;;;;;10.50;6.17;;;;;;;9.53;91.99;100766.67;1777245;80;21502;-58
2021/04/14 11:46:58;;;;;;;8.28;5.20;;;;;;;9.55;92.31;100766.61;1799448;78;21500;-57
2021/04/14 11:49:36;;;;;;;11.00;5.42;;;;;;;9.54;92.60;100766.19;1825131;78;21143;-59
2021/04/14 11:52:30;;;;;;;15.35;5.78;;;;;;;9.51;92.64;100760.94;1825407;78;21408;-58
2021/04/14 11:55:21;;;;;;;9.75;4.78;;;;;;;9.46;92.92;100760.62;1825184;78;21115;-58